createdAt,value
2019-01-03T00:01:03.460Z,2.74
2019-01-03T00:03:52.494Z,2.73
2019-01-03T00:24:53.733Z,2.78
2019-01-03T00:27:42.764Z,2.81
2019-01-03T00:33:38.513Z,2.81
2019-01-03T00:36:35.778Z,2.84
2019-01-03T00:39:45.096Z,2.90
2019-01-03T00:42:34.130Z,2.86
2019-01-03T00:45:14.251Z,2.95
2019-01-03T00:48:03.281Z,2.95
2019-01-03T00:50:52.374Z,2.96
2019-01-03T00:53:41.571Z,2.99
2019-01-03T00:56:30.654Z,3.01
2019-01-03T00:59:19.734Z,3.09
2019-01-03T01:02:08.835Z,3.01
2019-01-03T01:04:57.865Z,3.00
2019-01-03T01:07:47.144Z,3.00
2019-01-03T01:10:36.211Z,2.97
2019-01-03T01:16:31.251Z,3.00
2019-01-03T01:21:59.488Z,3.03
2019-01-03T01:25:07.227Z,3.06
2019-01-03T01:31:01.822Z,2.97
2019-01-03T01:36:44.973Z,2.89
2019-01-03T01:39:33.981Z,2.90
2019-01-03T01:42:26.313Z,2.93
2019-01-03T01:51:17.377Z,2.84
2019-01-03T01:54:06.442Z,2.82
2019-01-03T01:56:55.533Z,2.77
2019-01-03T01:59:44.629Z,2.77
2019-01-03T02:02:33.679Z,2.74
2019-01-03T02:05:22.669Z,2.79
2019-01-03T02:08:30.572Z,2.77
2019-01-03T02:11:19.607Z,2.73
2019-01-03T02:14:08.713Z,2.68
2019-01-03T02:16:57.769Z,2.67
2019-01-03T02:19:47.854Z,2.64
2019-01-03T02:22:36.870Z,2.66
2019-01-03T02:25:26.417Z,2.63
2019-01-03T02:28:15.536Z,2.64
2019-01-03T02:31:04.620Z,2.64
2019-01-03T02:33:53.650Z,2.67
2019-01-03T02:36:49.770Z,2.70
2019-01-03T02:39:38.788Z,2.75
2019-01-03T02:42:27.937Z,2.74
2019-01-03T02:45:17.016Z,2.80
2019-01-03T02:48:04.669Z,2.85
2019-01-03T02:50:53.714Z,2.79
2019-01-03T02:53:42.748Z,2.74
2019-01-03T03:20:49.609Z,2.78
2019-01-03T03:23:57.355Z,2.76
2019-01-03T03:26:38.783Z,2.76
2019-01-03T03:29:28.002Z,2.84
2019-01-03T03:32:17.049Z,2.76
2019-01-03T03:35:24.807Z,2.81
2019-01-03T03:38:14.053Z,2.81
2019-01-03T03:41:21.693Z,2.83
2019-01-03T03:44:10.897Z,2.80
2019-01-03T03:46:59.893Z,2.81
2019-01-03T03:50:07.690Z,2.83
2019-01-03T03:52:56.798Z,2.85
2019-01-03T03:55:45.878Z,2.81
2019-01-03T03:58:34.853Z,2.84
2019-01-03T04:01:23.940Z,2.86
2019-01-03T04:07:10.759Z,2.82
2019-01-03T04:12:53.817Z,2.95
2019-01-03T04:15:38.141Z,2.87
2019-01-03T04:18:27.224Z,2.89
2019-01-03T04:21:16.264Z,2.85
2019-01-03T04:45:10.929Z,2.78
2019-01-03T04:47:59.899Z,2.77
2019-01-03T04:50:49.089Z,2.80
2019-01-03T04:53:38.440Z,2.85
2019-01-03T04:56:24.725Z,2.84
2019-01-03T04:59:13.859Z,2.82
2019-01-03T05:02:21.718Z,2.80
2019-01-03T05:05:10.761Z,2.69
2019-01-03T05:07:59.830Z,2.67
2019-01-03T05:11:07.587Z,2.71
2019-01-03T05:13:56.796Z,2.73
2019-01-03T05:16:45.775Z,2.87
2019-01-03T05:22:29.678Z,2.99
2019-01-03T05:25:18.739Z,3.09
2019-01-03T05:31:15.729Z,3.23
2019-01-03T05:34:04.750Z,3.29
2019-01-03T05:37:12.414Z,3.37
2019-01-03T05:40:01.411Z,3.39
2019-01-03T05:42:50.568Z,3.40
2019-01-03T05:45:31.842Z,3.38
2019-01-03T06:03:50.331Z,3.28
2019-01-03T06:06:39.338Z,3.34
2019-01-03T06:09:28.943Z,3.36
2019-01-03T06:15:16.294Z,3.46
2019-01-03T06:18:24.143Z,3.45
2019-01-03T06:21:13.264Z,3.51
2019-01-03T06:26:47.933Z,3.47
2019-01-03T06:29:36.936Z,3.54
2019-01-03T06:32:46.209Z,3.65
2019-01-03T06:35:35.234Z,3.73
2019-01-03T06:38:44.519Z,3.71
2019-01-03T06:41:33.617Z,3.81
2019-01-03T06:44:22.720Z,3.94
2019-01-03T06:47:31.946Z,3.99
2019-01-03T06:50:21.079Z,4.12
2019-01-03T06:53:10.179Z,4.20
2019-01-03T06:55:51.397Z,4.21
2019-01-03T06:58:40.409Z,4.23
2019-01-03T07:01:29.546Z,4.23
2019-01-03T07:04:19.048Z,4.36
2019-01-03T07:07:08.265Z,4.49
2019-01-03T07:09:57.258Z,4.62
2019-01-03T07:12:46.346Z,4.66
2019-01-03T07:15:54.194Z,4.73
2019-01-03T07:18:43.318Z,4.81
2019-01-03T07:21:32.299Z,4.80
2019-01-03T07:24:13.878Z,4.84
2019-01-03T07:27:02.972Z,4.88
2019-01-03T07:29:52.786Z,5.00
2019-01-03T07:32:41.792Z,5.11
2019-01-03T07:35:50.861Z,5.19
2019-01-03T07:38:40.413Z,5.12
2019-01-03T07:41:29.336Z,5.10
2019-01-03T07:47:42.256Z,5.00
2019-01-03T07:50:49.974Z,4.80
2019-01-03T07:53:35.374Z,4.85
2019-01-03T07:56:24.362Z,4.99
2019-01-03T07:59:33.739Z,5.09
2019-01-03T08:02:43.013Z,5.27
2019-01-03T08:05:32.198Z,5.39
2019-01-03T08:08:41.273Z,5.32
2019-01-03T08:11:50.418Z,5.40
2019-01-03T08:14:58.709Z,5.57
2019-01-03T08:17:40.330Z,5.62
2019-01-03T08:20:49.628Z,5.66
2019-01-03T08:26:32.040Z,5.75
2019-01-03T08:29:41.272Z,5.75
2019-01-03T08:32:23.092Z,5.81
2019-01-03T08:35:09.598Z,5.70
2019-01-03T08:41:00.712Z,5.23
2019-01-03T08:43:49.789Z,4.98
2019-01-03T08:47:02.366Z,4.77
2019-01-03T08:49:54.401Z,4.79
2019-01-03T08:58:47.005Z,4.77
2019-01-03T09:08:02.225Z,5.04
2019-01-03T09:17:25.945Z,5.22
2019-01-03T09:29:18.431Z,5.59
2019-01-03T09:35:16.062Z,5.71
2019-01-03T09:38:05.041Z,5.76
2019-01-03T09:43:55.294Z,5.84
2019-01-03T09:46:36.344Z,5.90
2019-01-03T09:49:06.831Z,5.94
2019-01-03T09:51:37.148Z,6.05
2019-01-03T09:54:07.468Z,6.06
2019-01-03T09:56:38.939Z,6.02
2019-01-03T10:02:23.863Z,6.14
2019-01-03T10:04:54.175Z,6.05
2019-01-03T10:07:24.486Z,6.03
2019-01-03T10:10:14.091Z,6.01
2019-01-03T10:12:44.416Z,6.01
2019-01-03T10:15:14.681Z,5.97
2019-01-03T10:17:45.112Z,6.03
2019-01-03T10:20:34.083Z,6.02
2019-01-03T10:23:04.507Z,6.03
2019-01-03T10:25:35.016Z,6.14
2019-01-03T10:31:11.495Z,6.23
2019-01-03T10:36:37.669Z,6.03
2019-01-03T10:42:28.391Z,5.85
2019-01-03T10:45:17.434Z,5.87
2019-01-03T10:47:47.666Z,5.91
2019-01-03T10:50:17.781Z,5.95
2019-01-03T10:52:47.682Z,6.00
2019-01-03T10:55:36.770Z,6.02
2019-01-03T11:01:20.528Z,5.87
2019-01-03T11:04:09.510Z,5.91
2019-01-03T11:06:39.616Z,5.92
2019-01-03T11:09:32.302Z,6.00
2019-01-03T11:12:02.678Z,6.08
2019-01-03T11:14:32.780Z,6.01
2019-01-03T11:17:21.936Z,6.08
2019-01-03T11:22:38.044Z,6.24
2019-01-03T11:28:37.262Z,6.53
2019-01-03T11:31:07.674Z,6.63
2019-01-03T11:33:37.707Z,6.72
2019-01-03T11:38:44.159Z,6.89
2019-01-03T11:41:14.362Z,7.06
2019-01-03T11:46:33.737Z,7.23
2019-01-03T11:49:03.874Z,7.31
2019-01-03T11:54:31.091Z,7.49
2019-01-03T11:57:01.108Z,7.64
2019-01-03T11:59:31.546Z,7.67
2019-01-03T12:02:02.326Z,7.71
2019-01-03T12:04:52.609Z,7.78
2019-01-03T12:07:22.968Z,7.75
2019-01-03T12:09:53.129Z,7.63
2019-01-03T12:12:23.273Z,7.46
2019-01-03T12:14:53.695Z,7.38
2019-01-03T12:17:24.454Z,7.08
2019-01-03T12:19:54.746Z,6.97
2019-01-03T12:22:44.232Z,7.04
2019-01-03T12:28:40.576Z,6.87
2019-01-03T12:34:08.377Z,6.65
2019-01-03T12:36:38.500Z,6.73
2019-01-03T12:39:09.015Z,6.56
2019-01-03T12:41:39.174Z,6.63
2019-01-03T12:44:28.373Z,6.56
2019-01-03T12:46:59.043Z,6.43
2019-01-03T12:49:29.822Z,6.42
2019-01-03T12:52:00.176Z,6.40
2019-01-03T12:54:30.502Z,6.40
2019-01-03T12:59:56.237Z,5.99
2019-01-03T13:02:26.542Z,5.92
2019-01-03T13:04:56.921Z,5.87
2019-01-03T13:10:56.529Z,5.68
2019-01-03T13:13:40.958Z,5.83
2019-01-03T13:16:23.509Z,5.82
2019-01-03T13:19:07.310Z,5.89
2019-01-03T13:21:51.534Z,5.76
2019-01-03T13:24:35.243Z,5.73
2019-01-03T13:27:16.813Z,5.70
2019-01-03T13:29:47.235Z,5.54
2019-01-03T13:32:17.645Z,5.45
2019-01-03T13:38:05.459Z,5.56
2019-01-03T13:43:56.155Z,5.40
2019-01-03T13:52:23.957Z,5.28
2019-01-03T13:54:55.560Z,5.23
2019-01-03T14:06:04.822Z,5.06
2019-01-03T14:08:54.942Z,5.12
2019-01-03T14:17:00.807Z,4.88
2019-01-03T14:19:30.944Z,4.80
2019-01-03T14:22:01.401Z,4.75
2019-01-03T14:24:31.584Z,4.71
2019-01-03T14:27:02.188Z,4.65
2019-01-03T14:44:06.517Z,4.37
2019-01-03T14:51:59.055Z,4.31
2019-01-03T14:54:29.071Z,4.26
2019-01-03T14:56:59.190Z,4.23
2019-01-03T14:59:29.110Z,4.19
2019-01-03T15:01:59.279Z,4.23
2019-01-03T15:04:29.321Z,4.15
2019-01-03T15:06:59.234Z,4.13
2019-01-03T15:26:19.524Z,3.87
2019-01-03T15:29:01.766Z,3.88
2019-01-03T15:31:43.437Z,3.92
2019-01-03T15:34:24.785Z,3.92
2019-01-03T15:37:05.918Z,3.88
2019-01-03T15:39:47.664Z,3.86
2019-01-03T15:42:28.798Z,3.82
2019-01-03T15:45:10.341Z,3.83
2019-01-03T15:47:51.827Z,3.81
2019-01-03T15:50:33.967Z,3.76
2019-01-03T15:56:01.251Z,3.72
2019-01-03T15:58:43.239Z,3.70
2019-01-03T16:01:25.480Z,3.73
2019-01-03T16:06:46.641Z,3.56
2019-01-03T16:09:29.641Z,3.52
2019-01-03T16:12:11.261Z,3.48
2019-01-03T16:23:19.342Z,3.46
2019-01-03T16:37:27.658Z,3.33
2019-01-03T16:43:23.186Z,3.39
2019-01-03T16:45:53.526Z,3.34
2019-01-03T16:48:24.018Z,3.33
2019-01-03T16:50:55.024Z,3.25
2019-01-03T16:53:26.716Z,3.28
2019-01-03T16:56:00.499Z,3.25
2019-01-03T16:58:31.087Z,3.26
2019-01-03T17:01:01.830Z,3.20
2019-01-03T17:03:32.562Z,3.21
2019-01-03T17:06:02.847Z,3.19
2019-01-03T17:08:33.228Z,3.18
2019-01-03T17:11:04.422Z,3.11
2019-01-03T17:13:35.248Z,3.17
2019-01-03T17:16:05.492Z,3.12
2019-01-03T17:18:36.330Z,3.15
2019-01-03T17:21:06.844Z,3.15
2019-01-03T17:23:37.221Z,3.14
2019-01-03T17:26:07.809Z,3.16
2019-01-03T17:28:38.285Z,3.15
2019-01-03T17:31:09.016Z,3.13
2019-01-03T17:33:40.147Z,3.14
2019-01-03T17:36:10.734Z,3.11
2019-01-03T17:38:41.080Z,3.16
2019-01-03T17:41:11.686Z,3.15
2019-01-03T17:43:43.415Z,3.17
2019-01-03T17:46:13.772Z,3.14
2019-01-03T17:48:44.423Z,3.14
2019-01-03T17:51:14.865Z,3.14
2019-01-03T17:53:45.970Z,3.14
2019-01-03T17:56:16.648Z,3.14
2019-01-03T17:58:46.923Z,3.11
2019-01-03T18:01:17.424Z,3.06
2019-01-03T18:03:47.997Z,3.03
2019-01-03T18:06:18.134Z,3.05
2019-01-03T18:08:48.302Z,3.03
2019-01-03T18:11:18.674Z,2.98
2019-01-03T18:13:49.168Z,2.94
2019-01-03T18:16:20.118Z,2.95
2019-01-03T18:18:50.638Z,3.00
2019-01-03T18:21:21.030Z,2.92
2019-01-03T18:23:51.357Z,2.94
2019-01-03T18:26:21.785Z,2.91
2019-01-03T18:28:52.470Z,2.84
2019-01-03T18:31:23.210Z,2.88
2019-01-03T18:33:54.360Z,2.82
2019-01-03T18:36:25.027Z,2.85
2019-01-03T18:38:57.126Z,2.83
2019-01-03T18:41:27.512Z,2.81
2019-01-03T18:43:58.207Z,2.79
2019-01-03T18:46:28.829Z,2.73
2019-01-03T18:48:59.586Z,2.76
2019-01-03T18:51:30.131Z,2.71
2019-01-03T18:54:00.713Z,2.71
2019-01-03T18:56:32.133Z,2.69
2019-01-03T18:59:02.537Z,2.70
2019-01-03T19:01:33.062Z,2.69
2019-01-03T19:04:03.812Z,2.73
2019-01-03T19:06:34.612Z,2.70
2019-01-03T19:09:06.872Z,2.68
2019-01-03T19:11:37.365Z,2.65
2019-01-03T19:14:08.043Z,2.61
2019-01-03T19:16:38.993Z,2.65
2019-01-03T19:19:09.895Z,2.73
2019-01-03T19:21:40.684Z,2.67
2019-01-03T19:24:11.294Z,2.70
2019-01-03T19:26:43.128Z,2.61
2019-01-03T19:29:13.417Z,2.63
2019-01-03T19:31:44.343Z,2.64
2019-01-03T19:34:14.956Z,2.66
2019-01-03T19:36:45.452Z,2.64
2019-01-03T19:39:16.196Z,2.61
2019-01-03T19:41:46.495Z,2.56
2019-01-03T19:44:16.968Z,2.55
2019-01-03T19:46:47.317Z,2.52
2019-01-03T19:49:17.779Z,2.52
2019-01-03T19:51:48.481Z,2.47
2019-01-03T19:54:19.031Z,2.50
2019-01-03T19:56:49.656Z,2.48
2019-01-03T19:59:20.143Z,2.49
2019-01-03T20:01:51.021Z,2.47
2019-01-03T20:04:21.242Z,2.44
2019-01-03T20:06:52.035Z,2.41
2019-01-03T20:09:22.952Z,2.43
2019-01-03T20:11:53.377Z,2.41
2019-01-03T20:14:26.878Z,2.41
2019-01-03T20:16:58.327Z,2.37
2019-01-03T20:19:28.640Z,2.34
2019-01-03T20:21:59.909Z,2.32
2019-01-03T20:24:30.903Z,2.29
2019-01-03T20:27:01.335Z,2.32
2019-01-03T20:29:31.665Z,2.27
2019-01-03T20:32:04.071Z,2.30
2019-01-03T20:34:34.912Z,2.28
2019-01-03T20:37:08.309Z,2.28
2019-01-03T20:39:38.650Z,2.25
2019-01-03T20:42:08.957Z,2.24
2019-01-03T20:44:40.190Z,2.21
2019-01-03T20:47:11.343Z,2.15
2019-01-03T20:49:41.682Z,2.17
2019-01-03T20:52:12.366Z,2.13
2019-01-03T20:54:42.786Z,2.12
2019-01-03T20:57:13.254Z,2.11
2019-01-03T20:59:44.527Z,2.07
2019-01-03T21:02:18.846Z,2.04
2019-01-03T21:04:49.432Z,2.05
2019-01-03T21:07:19.880Z,2.05
2019-01-03T21:09:50.228Z,1.97
2019-01-03T21:12:21.359Z,1.97
2019-01-03T21:14:51.674Z,1.94
2019-01-03T21:17:22.100Z,1.87
2019-01-03T21:19:52.885Z,1.79
2019-01-03T21:22:23.629Z,1.77
2019-01-03T21:24:55.441Z,1.68
2019-01-03T21:27:26.254Z,1.72
2019-01-03T21:29:57.396Z,1.65
2019-01-03T21:32:28.280Z,1.59
2019-01-03T21:34:58.847Z,1.58
2019-01-03T21:37:29.320Z,1.57
2019-01-03T21:39:59.743Z,1.53
2019-01-03T21:42:30.578Z,1.49
2019-01-03T21:45:01.171Z,1.50
2019-01-03T21:47:31.822Z,1.57
2019-01-03T21:50:02.733Z,1.56
2019-01-03T21:52:33.233Z,1.50
2019-01-03T21:55:03.740Z,1.49
2019-01-03T21:57:34.441Z,1.43
2019-01-03T22:00:05.618Z,1.42
2019-01-03T22:02:36.216Z,1.45
2019-01-03T22:05:06.979Z,1.42
2019-01-03T22:07:37.623Z,1.35
2019-01-03T22:10:09.674Z,1.38
2019-01-03T22:12:40.267Z,1.35
2019-01-03T22:15:12.110Z,1.33
2019-01-03T22:17:43.081Z,1.37
2019-01-03T22:20:13.756Z,1.34
2019-01-03T22:22:44.378Z,1.34
2019-01-03T22:25:15.108Z,1.26
2019-01-03T22:27:45.715Z,1.27
2019-01-03T22:30:16.302Z,1.26
2019-01-03T22:32:46.902Z,1.27
2019-01-03T22:35:17.419Z,1.26
2019-01-03T22:37:48.968Z,1.22
2019-01-03T22:40:19.692Z,1.24
2019-01-03T22:42:50.447Z,1.27
2019-01-03T22:45:21.039Z,1.27
2019-01-03T22:47:51.863Z,1.22
2019-01-03T22:50:22.620Z,1.25
2019-01-03T22:52:53.161Z,1.17
2019-01-03T22:55:23.743Z,1.09
2019-01-03T22:57:54.561Z,1.12
2019-01-03T23:00:35.521Z,1.13
2019-01-03T23:03:06.174Z,1.12
2019-01-03T23:05:37.009Z,1.13
2019-01-03T23:08:07.778Z,1.13
